createdAt,value
2016-07-09T00:00:12.271Z,80.76
2016-07-09T00:01:12.252Z,79.8
2016-07-09T00:02:12.356Z,80.57
2016-07-09T00:03:12.292Z,80.19
2016-07-09T00:04:12.384Z,79.99
2016-07-09T00:05:12.340Z,80.38
2016-07-09T00:06:12.399Z,80.66
2016-07-09T00:07:12.377Z,80.57
2016-07-09T00:08:12.429Z,81.15
2016-07-09T00:09:12.418Z,81.34
2016-07-09T00:10:12.475Z,81.24
2016-07-09T00:11:12.467Z,81.15
2016-07-09T00:12:12.477Z,81.2
2016-07-09T00:13:12.512Z,80.63
2016-07-09T00:14:12.539Z,81.63
2016-07-09T00:15:12.539Z,82.16
2016-07-09T00:16:12.561Z,82.84
2016-07-09T00:17:12.586Z,82.35
2016-07-09T00:18:12.612Z,82.26
2016-07-09T00:19:12.619Z,82.45
2016-07-09T00:20:12.641Z,81.78
2016-07-09T00:21:12.660Z,82.16
2016-07-09T00:22:12.681Z,82.64
2016-07-09T00:23:12.695Z,82.45
2016-07-09T00:24:12.719Z,81.97
2016-07-09T00:25:12.742Z,81.1
2016-07-09T00:26:12.763Z,81.01
2016-07-09T00:27:12.779Z,82.07
2016-07-09T00:28:12.799Z,81.68
2016-07-09T00:29:12.823Z,81.87
2016-07-09T00:30:12.845Z,83.03
2016-07-09T00:31:12.865Z,82.64
2016-07-09T00:32:12.886Z,82.84
2016-07-09T00:33:12.900Z,83.22
2016-07-09T00:34:12.924Z,84.18
2016-07-09T00:35:12.945Z,84.66
2016-07-09T00:36:12.967Z,85.42
2016-07-09T00:37:12.987Z,86.58
2016-07-09T00:38:13.003Z,86.38
2016-07-09T00:39:13.020Z,87.15
2016-07-09T00:40:13.046Z,86.96
2016-07-09T00:41:13.062Z,86.77
2016-07-09T00:42:13.087Z,87.49
2016-07-09T00:43:13.103Z,87.88
2016-07-09T00:44:13.128Z,87.88
2016-07-09T00:45:13.140Z,88.35
2016-07-09T00:46:13.163Z,88.07
2016-07-09T00:47:13.180Z,88.55
2016-07-09T00:48:13.208Z,88.07
2016-07-09T00:49:13.221Z,88.26
2016-07-09T00:50:13.239Z,87.11
2016-07-09T00:51:13.259Z,87.68
2016-07-09T00:52:13.281Z,88.74
2016-07-09T00:53:13.297Z,89.32
2016-07-09T00:54:13.318Z,88.45
2016-07-09T00:55:13.371Z,89.51
2016-07-09T00:56:13.364Z,88.07
2016-07-09T00:57:13.381Z,87.11
2016-07-09T00:58:13.404Z,87.88
2016-07-09T00:59:13.423Z,88.93
2016-07-09T01:00:13.437Z,88.74
2016-07-09T01:01:13.465Z,87.88
2016-07-09T01:02:13.483Z,88.07
2016-07-09T01:03:13.505Z,88.07
2016-07-09T01:04:13.522Z,87.4
2016-07-09T01:05:13.541Z,87.59
2016-07-09T01:06:13.553Z,87.78
2016-07-09T01:07:13.587Z,89.03
2016-07-09T01:08:13.603Z,89.79
2016-07-09T01:09:13.622Z,89.99
2016-07-09T01:10:13.634Z,90.47
2016-07-09T01:11:13.657Z,90.95
2016-07-09T01:12:13.681Z,90.23
2016-07-09T01:13:13.697Z,90.18
2016-07-09T01:14:13.714Z,90.95
2016-07-09T01:15:13.744Z,90.56
2016-07-09T01:16:13.757Z,89.65
2016-07-09T01:17:13.773Z,90.23
2016-07-09T01:18:13.797Z,90.28
2016-07-09T01:19:13.825Z,90.95
2016-07-09T01:20:13.836Z,90.85
2016-07-09T01:21:13.863Z,92.34
2016-07-09T01:22:13.877Z,92.63
2016-07-09T01:23:13.895Z,91.67
2016-07-09T01:24:13.916Z,90.52
2016-07-09T01:25:13.942Z,90.42
2016-07-09T01:26:13.953Z,91
2016-07-09T01:27:13.974Z,90.61
2016-07-09T01:28:13.994Z,90.61
2016-07-09T01:29:14.015Z,90.9
2016-07-09T01:30:14.030Z,91.86
2016-07-09T01:31:14.051Z,91.96
2016-07-09T01:32:14.073Z,91.72
2016-07-09T01:33:14.086Z,91.62
2016-07-09T01:34:14.114Z,90.81
2016-07-09T01:35:14.134Z,90.81
2016-07-09T01:36:14.155Z,90.23
2016-07-09T01:37:14.164Z,91
2016-07-09T01:38:14.189Z,90.9
2016-07-09T01:39:14.210Z,89.89
2016-07-09T01:40:14.229Z,90.04
2016-07-09T01:41:14.255Z,90.33
2016-07-09T01:42:14.264Z,90.28
2016-07-09T01:43:14.289Z,90.66
2016-07-09T01:44:14.306Z,90.56
2016-07-09T01:45:14.329Z,90.28
2016-07-09T01:46:14.350Z,89.79
2016-07-09T01:47:14.371Z,90.28
2016-07-09T01:48:14.381Z,90.75
2016-07-09T01:49:14.406Z,90.47
2016-07-09T01:50:14.430Z,90.66
2016-07-09T01:51:14.437Z,91.81
2016-07-09T01:52:14.460Z,91.77
2016-07-09T01:53:14.487Z,92.63
2016-07-09T01:54:14.527Z,92.72
2016-07-09T01:55:14.522Z,92.24
2016-07-09T01:56:14.540Z,92.72
2016-07-09T01:57:14.561Z,92.44
2016-07-09T01:58:14.640Z,92.63
2016-07-09T01:59:14.603Z,92.44
2016-07-09T02:00:14.650Z,93.01
2016-07-09T02:01:14.637Z,92.63
2016-07-09T02:02:14.743Z,93.59
2016-07-09T02:03:14.681Z,93.68
2016-07-09T02:04:14.739Z,93.68
2016-07-09T02:05:14.715Z,93.68
2016-07-09T02:06:14.766Z,93.49
2016-07-09T02:07:14.765Z,94.45
2016-07-09T02:08:14.798Z,93.88
2016-07-09T02:09:14.798Z,93.59
2016-07-09T02:10:14.848Z,93.4
2016-07-09T02:11:14.835Z,93.68
2016-07-09T02:12:14.866Z,92.72
2016-07-09T02:13:14.879Z,92.24
2016-07-09T02:14:14.894Z,92.72
2016-07-09T02:15:14.914Z,92.82
2016-07-09T02:16:14.930Z,92.72
2016-07-09T02:17:14.954Z,91.86
2016-07-09T02:18:14.974Z,90.71
2016-07-09T02:19:14.992Z,90.14
2016-07-09T02:20:15.010Z,90.9
2016-07-09T02:21:15.034Z,91.09
2016-07-09T02:22:15.052Z,91.77
2016-07-09T02:23:15.073Z,91.96
2016-07-09T02:24:15.092Z,91.96
2016-07-09T02:25:15.106Z,91.67
2016-07-09T02:26:15.123Z,91.19
2016-07-09T02:27:15.149Z,90.23
2016-07-09T02:28:15.172Z,89.94
2016-07-09T02:29:15.191Z,89.79
2016-07-09T02:30:15.207Z,88.98
2016-07-09T02:31:15.227Z,89.08
2016-07-09T02:32:15.244Z,89.99
2016-07-09T02:33:15.270Z,89.89
2016-07-09T02:34:15.278Z,90.47
2016-07-09T02:35:15.305Z,91.14
2016-07-09T02:36:15.319Z,90.66
2016-07-09T02:37:15.341Z,90.37
2016-07-09T02:38:15.368Z,90.75
2016-07-09T02:39:15.383Z,90.85
2016-07-09T02:40:15.403Z,91.81
2016-07-09T02:41:15.416Z,91.33
2016-07-09T02:42:15.444Z,91.62
2016-07-09T02:43:15.465Z,91.77
2016-07-09T02:44:15.489Z,92.19
2016-07-09T02:45:15.547Z,91.67
2016-07-09T02:46:15.525Z,91.48
2016-07-09T02:47:15.542Z,90.61
2016-07-09T02:48:15.593Z,90.81
2016-07-09T02:49:15.583Z,91.38
2016-07-09T02:50:15.604Z,91.19
2016-07-09T02:51:15.622Z,91.77
2016-07-09T02:52:15.711Z,91.48
2016-07-09T02:53:15.659Z,91.38
2016-07-09T02:54:15.744Z,92.24
2016-07-09T02:55:15.701Z,92.24
2016-07-09T02:56:15.809Z,92.29
2016-07-09T02:57:15.739Z,91.48
2016-07-09T02:58:15.797Z,90.61
2016-07-09T02:59:15.778Z,91.19
2016-07-09T03:00:15.836Z,90.81
2016-07-09T03:01:15.826Z,90.18
2016-07-09T03:02:15.886Z,90.33
2016-07-09T03:03:15.863Z,90.75
2016-07-09T03:04:15.904Z,90.66
2016-07-09T03:05:15.893Z,91.05
2016-07-09T03:06:15.927Z,91.67
2016-07-09T03:07:15.932Z,91.28
2016-07-09T03:08:15.960Z,91.09
2016-07-09T03:09:15.977Z,91.38
2016-07-09T03:10:15.990Z,91.52
2016-07-09T03:11:16.010Z,90.81
2016-07-09T03:12:16.030Z,91.38
2016-07-09T03:13:16.054Z,91.72
2016-07-09T03:14:16.077Z,91.57
2016-07-09T03:15:16.098Z,91.48
2016-07-09T03:16:16.114Z,91.19
2016-07-09T03:17:16.133Z,92.05
2016-07-09T03:18:16.153Z,92.05
2016-07-09T03:19:16.178Z,92.44
2016-07-09T03:20:16.187Z,92.24
2016-07-09T03:21:16.215Z,92.44
2016-07-09T03:22:16.859Z,92.05
2016-07-09T03:23:16.880Z,92.54
2016-07-09T03:24:16.272Z,92.44
2016-07-09T03:25:16.284Z,91.57
2016-07-09T03:26:16.307Z,91.19
2016-07-09T03:27:16.327Z,90.71
2016-07-09T03:28:16.346Z,90.9
2016-07-09T03:29:16.360Z,91.57
2016-07-09T03:30:16.383Z,91.48
2016-07-09T03:31:16.406Z,90.9
2016-07-09T03:32:16.421Z,91.09
2016-07-09T03:33:16.450Z,90.71
2016-07-09T03:34:16.467Z,91.24
2016-07-09T03:35:16.484Z,91.09
2016-07-09T03:36:16.520Z,91.09
2016-07-09T03:37:16.530Z,91.67
2016-07-09T03:38:16.546Z,90.81
2016-07-09T03:39:16.570Z,90.42
2016-07-09T03:40:16.589Z,91.19
2016-07-09T03:41:16.599Z,91.86
2016-07-09T03:42:16.629Z,92.34
2016-07-09T03:43:16.645Z,91.09
2016-07-09T03:44:16.664Z,92.15
2016-07-09T03:45:16.675Z,92.05
2016-07-09T03:46:16.696Z,91.77
2016-07-09T03:47:16.719Z,91.38
2016-07-09T03:48:16.738Z,91.96
2016-07-09T03:49:16.764Z,92.44
2016-07-09T03:50:16.776Z,92.44
2016-07-09T03:51:16.798Z,92.24
2016-07-09T03:52:16.813Z,92.15
2016-07-09T03:53:16.856Z,92.05
2016-07-09T03:54:16.850Z,92.44
2016-07-09T03:55:16.870Z,92.54
2016-07-09T03:56:16.898Z,92.54
2016-07-09T03:57:16.912Z,92.15
2016-07-09T03:58:16.936Z,91.57
2016-07-09T03:59:16.946Z,90.9
2016-07-09T04:00:16.973Z,90.14
2016-07-09T04:01:16.991Z,90.23
2016-07-09T04:02:17.014Z,90.04
2016-07-09T04:03:17.034Z,89.85
2016-07-09T04:04:17.058Z,90.04
2016-07-09T04:05:17.071Z,89.85
2016-07-09T04:06:17.089Z,89.47
2016-07-09T04:07:17.112Z,89.89
2016-07-09T04:08:17.127Z,90.14
2016-07-09T04:09:17.150Z,90.33
2016-07-09T04:10:17.172Z,90.14
2016-07-09T04:11:17.190Z,90.23
2016-07-09T04:12:17.209Z,89.47
2016-07-09T04:13:17.231Z,89.37
2016-07-09T04:14:17.254Z,90.23
2016-07-09T04:15:17.263Z,89.47
2016-07-09T04:16:17.285Z,88.51
2016-07-09T04:17:17.309Z,88.41
2016-07-09T04:18:17.322Z,88.98
2016-07-09T04:19:17.347Z,88.98
2016-07-09T04:20:17.364Z,89.08
2016-07-09T04:21:17.385Z,90.04
2016-07-09T04:22:17.404Z,89.75
2016-07-09T04:23:17.422Z,89.85
2016-07-09T04:24:17.445Z,89.18
2016-07-09T04:25:17.464Z,89.27
2016-07-09T04:26:17.484Z,88.84
2016-07-09T04:27:17.503Z,88.45
2016-07-09T04:28:17.523Z,88.55
2016-07-09T04:29:17.543Z,88.45
2016-07-09T04:30:17.558Z,87.98
2016-07-09T04:31:17.582Z,88.26
2016-07-09T04:32:17.599Z,87.88
2016-07-09T04:33:17.627Z,86.44
2016-07-09T04:34:17.633Z,86.44
2016-07-09T04:35:17.662Z,86.44
2016-07-09T04:36:17.682Z,85.86
2016-07-09T04:37:17.703Z,86.15
2016-07-09T04:38:17.712Z,87.11
2016-07-09T04:39:17.741Z,87.3
2016-07-09T04:40:17.755Z,87.49
2016-07-09T04:41:17.781Z,86.72
2016-07-09T04:42:17.793Z,86.72
2016-07-09T04:43:17.815Z,86.25
2016-07-09T04:44:17.829Z,86.44
2016-07-09T04:45:17.858Z,86.05
2016-07-09T04:46:17.871Z,85.67
2016-07-09T04:47:17.896Z,85.81
2016-07-09T04:48:17.923Z,85.42
2016-07-09T04:49:17.932Z,85.14
2016-07-09T04:50:17.959Z,84.52
2016-07-09T04:51:17.975Z,85.24
2016-07-09T04:52:17.999Z,84.18
2016-07-09T04:53:18.019Z,84.37
2016-07-09T04:54:18.039Z,84.56
2016-07-09T04:55:18.051Z,85.14
2016-07-09T04:56:18.073Z,84.27
2016-07-09T04:57:18.093Z,84.08
2016-07-09T04:58:18.121Z,83.8
2016-07-09T04:59:18.141Z,84.27
2016-07-09T05:00:18.156Z,84.27
2016-07-09T05:01:18.185Z,84.75
2016-07-09T05:02:18.200Z,86
2016-07-09T05:03:18.211Z,85.91
2016-07-09T05:04:18.236Z,85.86
2016-07-09T05:05:18.257Z,85.81
2016-07-09T05:06:18.271Z,85.19
2016-07-09T05:07:18.293Z,85.48
2016-07-09T05:08:18.311Z,85.96
2016-07-09T05:09:18.334Z,85.28
2016-07-09T05:10:18.355Z,84.81
2016-07-09T05:11:18.373Z,84.23
2016-07-09T05:12:18.394Z,84.14
2016-07-09T05:13:18.418Z,83.56
2016-07-09T05:14:18.430Z,84.47
2016-07-09T05:15:18.450Z,85.14
2016-07-09T05:16:18.470Z,85.58
2016-07-09T05:17:18.494Z,84.71
2016-07-09T05:18:18.512Z,83.65
2016-07-09T05:19:18.534Z,83.8
2016-07-09T05:20:18.558Z,84.18
2016-07-09T05:21:18.574Z,84.18
2016-07-09T05:22:18.591Z,83.89
2016-07-09T05:23:18.614Z,84.47
2016-07-09T05:24:18.635Z,83.7
2016-07-09T05:25:18.661Z,84.47
2016-07-09T05:26:18.668Z,83.31
2016-07-09T05:27:18.692Z,82.54
2016-07-09T05:28:18.707Z,82.45
2016-07-09T05:29:18.733Z,82.54
2016-07-09T05:30:18.748Z,81.01
2016-07-09T05:31:18.771Z,81.2
2016-07-09T05:32:18.792Z,81.01
2016-07-09T05:33:18.815Z,81.01
2016-07-09T05:34:18.829Z,80.05
2016-07-09T05:35:18.853Z,80.09
2016-07-09T05:36:18.880Z,80.09
2016-07-09T05:37:18.892Z,79.9
2016-07-09T05:38:18.913Z,79.9
2016-07-09T05:39:18.936Z,79.8
2016-07-09T05:40:18.957Z,80.57
2016-07-09T05:41:18.971Z,80.28
2016-07-09T05:42:18.991Z,80.38
2016-07-09T05:43:19.006Z,79.99
2016-07-09T05:44:19.034Z,79.52
2016-07-09T05:45:19.051Z,79.52
2016-07-09T05:46:19.080Z,79.32
2016-07-09T05:47:19.095Z,78.36
2016-07-09T05:48:19.106Z,78.36
2016-07-09T05:49:19.139Z,78.27
2016-07-09T05:50:19.159Z,78.3
2016-07-09T05:51:19.168Z,78.08
2016-07-09T05:52:19.199Z,77.73
2016-07-09T05:53:19.217Z,76.67
2016-07-09T05:54:19.233Z,76.19
2016-07-09T05:55:19.251Z,75.62
2016-07-09T05:56:19.273Z,74.85
2016-07-09T05:57:19.298Z,74.79
2016-07-09T05:58:19.316Z,75.46
2016-07-09T05:59:19.345Z,75.75
2016-07-09T06:00:19.358Z,76.09
2016-07-09T06:01:19.379Z,75.42
2016-07-09T06:02:19.402Z,75.23
2016-07-09T06:03:19.419Z,75.32
2016-07-09T06:04:19.439Z,75.07
2016-07-09T06:05:19.458Z,74.69
2016-07-09T06:06:19.478Z,75.32
2016-07-09T06:07:19.502Z,75.52
2016-07-09T06:08:19.528Z,75.52
2016-07-09T06:09:19.540Z,75.42
2016-07-09T06:10:19.557Z,74.85
2016-07-09T06:11:19.583Z,74.79
2016-07-09T06:12:19.607Z,74.69
2016-07-09T06:13:19.627Z,74.02
2016-07-09T06:14:19.642Z,73.92
2016-07-09T06:15:19.665Z,73.73
2016-07-09T06:16:19.686Z,73.67
2016-07-09T06:17:19.702Z,73.38
2016-07-09T06:18:19.728Z,73.44
2016-07-09T06:19:19.743Z,74.6
2016-07-09T06:20:19.765Z,74.3
2016-07-09T06:21:19.783Z,74.11
2016-07-09T06:22:19.817Z,74.5
2016-07-09T06:23:19.831Z,74.11
2016-07-09T06:24:19.849Z,74.11
2016-07-09T06:25:19.867Z,74.21
2016-07-09T06:26:19.896Z,74.11
2016-07-09T06:27:19.919Z,73.83
2016-07-09T06:28:19.937Z,72.86
2016-07-09T06:29:19.962Z,72.38
2016-07-09T06:30:19.979Z,72.32
2016-07-09T06:31:20.016Z,72.13
2016-07-09T06:32:20.021Z,72.61
2016-07-09T06:33:20.041Z,72.61
2016-07-09T06:34:20.063Z,72.23
2016-07-09T06:35:20.079Z,72.32
2016-07-09T06:36:20.103Z,72.23
2016-07-09T06:37:20.125Z,73.83
2016-07-09T06:38:20.145Z,73.54
2016-07-09T06:39:20.169Z,73.83
2016-07-09T06:40:20.181Z,72.77
2016-07-09T06:41:20.208Z,72.13
2016-07-09T06:42:20.222Z,72.03
2016-07-09T06:43:20.262Z,72.23
2016-07-09T06:44:20.268Z,72.32
2016-07-09T06:45:20.286Z,72.17
2016-07-09T06:46:20.305Z,72.32
2016-07-09T06:47:20.332Z,72.61
2016-07-09T06:48:20.353Z,73.83
2016-07-09T06:49:20.370Z,74.02
2016-07-09T06:50:20.390Z,73.63
2016-07-09T06:51:20.416Z,73.83
2016-07-09T06:52:20.434Z,73.63
2016-07-09T06:53:20.451Z,74.02
2016-07-09T06:54:20.477Z,73.44
2016-07-09T06:55:20.497Z,72.58
2016-07-09T06:56:20.522Z,71.65
2016-07-09T06:57:20.535Z,71.26
2016-07-09T06:58:20.564Z,71.01
2016-07-09T06:59:20.580Z,71.01
2016-07-09T07:00:20.608Z,70.24
2016-07-09T07:01:20.618Z,69.76
2016-07-09T07:02:20.638Z,69.47
2016-07-09T07:03:20.667Z,68.51
2016-07-09T07:04:20.684Z,67.77
2016-07-09T07:05:20.709Z,68.26
2016-07-09T07:06:20.731Z,68.06
2016-07-09T07:07:20.747Z,68.16
2016-07-09T07:08:20.772Z,68.35
2016-07-09T07:09:20.786Z,68.44
2016-07-09T07:10:20.816Z,68.44
2016-07-09T07:11:20.839Z,69.22
2016-07-09T07:12:20.851Z,70.05
2016-07-09T07:13:20.874Z,69.76
2016-07-09T07:14:20.901Z,70.34
2016-07-09T07:15:20.918Z,70.82
2016-07-09T07:16:20.934Z,70.34
2016-07-09T07:17:20.962Z,68.99
2016-07-09T07:18:20.984Z,68.26
2016-07-09T07:19:21.004Z,67.77
2016-07-09T07:20:21.027Z,67.68
2016-07-09T07:21:21.047Z,66.75
2016-07-09T07:22:21.068Z,66.85
2016-07-09T07:23:21.085Z,67.49
2016-07-09T07:24:21.108Z,66.81
2016-07-09T07:25:21.133Z,67.23
2016-07-09T07:26:21.164Z,65.66
2016-07-09T07:27:21.169Z,64.43
2016-07-09T07:28:21.198Z,64.47
2016-07-09T07:29:21.216Z,64.56
2016-07-09T07:30:21.234Z,63.41
2016-07-09T07:31:21.261Z,62.76
2016-07-09T07:32:21.282Z,62.35
2016-07-09T07:33:21.302Z,62.25
2016-07-09T07:34:21.320Z,63.31
2016-07-09T07:35:21.350Z,62.15
2016-07-09T07:36:21.372Z,62.66
2016-07-09T07:37:21.385Z,62.86
2016-07-09T07:38:21.406Z,63.15
2016-07-09T07:39:21.434Z,62.76
2016-07-09T07:40:21.462Z,62.57
2016-07-09T07:41:21.475Z,63.54
2016-07-09T07:42:21.497Z,63.5
2016-07-09T07:43:21.514Z,62.15
2016-07-09T07:44:21.547Z,63.24
2016-07-09T07:45:21.560Z,62.86
2016-07-09T07:46:21.583Z,63.34
2016-07-09T07:47:21.610Z,62.73
2016-07-09T07:48:21.634Z,63.5
2016-07-09T07:49:21.648Z,63.21
2016-07-09T07:50:21.669Z,63.31
2016-07-09T07:51:21.712Z,64.37
2016-07-09T07:52:21.711Z,63.5
2016-07-09T07:53:21.742Z,64.28
2016-07-09T07:54:21.754Z,64.47
2016-07-09T07:55:21.779Z,65.14
2016-07-09T07:56:21.804Z,65.24
2016-07-09T07:57:21.822Z,64.25
2016-07-09T07:58:21.854Z,64.63
2016-07-09T07:59:21.868Z,64.63
2016-07-09T08:00:21.885Z,64.34
2016-07-09T08:01:21.916Z,63.47
2016-07-09T08:02:21.989Z,62.03
2016-07-09T08:03:21.954Z,61.58
2016-07-09T08:04:21.971Z,62.06
2016-07-09T08:05:22.008Z,62.93
2016-07-09T08:06:22.018Z,63.67
2016-07-09T08:07:22.039Z,63.57
2016-07-09T08:08:22.064Z,61.87
2016-07-09T08:09:22.083Z,61.77
2016-07-09T08:10:22.109Z,62.06
2016-07-09T08:11:22.128Z,62.25
2016-07-09T08:12:22.151Z,61.77
2016-07-09T08:13:22.200Z,60.52
2016-07-09T08:14:22.208Z,60.64
2016-07-09T08:15:22.213Z,61
2016-07-09T08:16:22.239Z,60.74
2016-07-09T08:17:22.261Z,60.61
2016-07-09T08:18:22.280Z,61.58
2016-07-09T08:19:22.301Z,61.68
2016-07-09T08:20:22.328Z,61.96
2016-07-09T08:21:22.345Z,62.35
2016-07-09T08:22:22.359Z,62.73
2016-07-09T08:23:22.388Z,62.25
2016-07-09T08:24:22.420Z,61.38
2016-07-09T08:25:22.429Z,61.48
2016-07-09T08:26:22.452Z,60.9
2016-07-09T08:27:22.477Z,61.51
2016-07-09T08:28:22.501Z,59.87
2016-07-09T08:29:22.518Z,59.39
2016-07-09T08:30:22.542Z,57.94
2016-07-09T08:31:22.556Z,55.34
2016-07-09T08:32:22.587Z,54.79
2016-07-09T08:33:22.605Z,55.2
2016-07-09T08:34:22.632Z,55.94
2016-07-09T08:35:22.651Z,56.74
2016-07-09T08:36:22.679Z,56.65
2016-07-09T08:37:22.696Z,56.52
2016-07-09T08:38:22.712Z,57.1
2016-07-09T08:39:22.739Z,56.11
2016-07-09T08:40:22.757Z,55.73
2016-07-09T08:41:22.785Z,55.24
2016-07-09T08:42:22.802Z,55.18
2016-07-09T08:43:22.824Z,55.36
2016-07-09T08:44:22.842Z,55.08
2016-07-09T08:45:22.870Z,54.05
2016-07-09T08:46:22.892Z,52.98
2016-07-09T08:47:22.911Z,52.53
2016-07-09T08:48:22.936Z,52.14
2016-07-09T08:49:22.959Z,52.33
2016-07-09T08:50:22.982Z,52.53
2016-07-09T08:51:23.001Z,52.53
2016-07-09T08:52:23.032Z,52.43
2016-07-09T08:53:23.051Z,51.56
2016-07-09T08:54:23.070Z,51.07
2016-07-09T08:55:23.096Z,50.89
2016-07-09T08:56:23.117Z,51.34
2016-07-09T08:57:23.140Z,51.63
2016-07-09T08:58:23.159Z,52.79
2016-07-09T08:59:23.183Z,52.79
2016-07-09T09:00:23.209Z,54.5
2016-07-09T09:01:23.235Z,54.79
2016-07-09T09:02:23.264Z,56.24
2016-07-09T09:03:23.281Z,56.14
2016-07-09T09:04:23.302Z,55.76
2016-07-09T09:05:23.326Z,54.88
2016-07-09T09:06:23.349Z,53.95
2016-07-09T09:07:23.369Z,53.85
2016-07-09T09:08:23.395Z,53.27
2016-07-09T09:09:23.423Z,52.79
2016-07-09T09:10:23.451Z,50.98
2016-07-09T09:11:23.465Z,51.17
2016-07-09T09:12:23.480Z,51.82
2016-07-09T09:13:23.509Z,51.75
2016-07-09T09:14:23.534Z,52.14
2016-07-09T09:15:23.553Z,52.81
2016-07-09T09:16:23.576Z,51.46
2016-07-09T09:17:23.591Z,51.85
2016-07-09T09:18:23.618Z,51.65
2016-07-09T09:19:23.641Z,52.72
2016-07-09T09:20:23.663Z,52.4
2016-07-09T09:21:23.678Z,52.11
2016-07-09T09:22:23.703Z,51.73
2016-07-09T09:23:23.733Z,52.98
2016-07-09T09:24:23.750Z,52.89
2016-07-09T09:25:23.769Z,52.98
2016-07-09T09:26:23.794Z,52.21
2016-07-09T09:27:23.831Z,51.73
2016-07-09T09:28:23.835Z,51.63
2016-07-09T09:29:23.871Z,52.01
2016-07-09T09:30:23.879Z,52.59
2016-07-09T09:31:23.904Z,51.73
2016-07-09T09:32:23.924Z,51.53
2016-07-09T09:33:23.949Z,52.31
2016-07-09T09:34:23.967Z,52.4
2016-07-09T09:35:24.030Z,52.31
2016-07-09T09:36:24.062Z,52.67
2016-07-09T09:37:24.096Z,52.5
2016-07-09T09:38:24.120Z,52.21
2016-07-09T09:39:24.132Z,51.07
2016-07-09T09:40:24.148Z,50.89
2016-07-09T09:41:24.150Z,51.56
2016-07-09T09:42:24.150Z,51.17
2016-07-09T09:43:24.175Z,49.92
2016-07-09T09:44:24.237Z,50.31
2016-07-09T09:45:24.224Z,49.92
2016-07-09T09:46:24.246Z,49.85
2016-07-09T09:47:24.315Z,48.69
2016-07-09T09:48:24.288Z,48.3
2016-07-09T09:49:24.314Z,48.69
2016-07-09T09:50:24.332Z,47.72
2016-07-09T09:51:24.355Z,48.79
2016-07-09T09:52:24.379Z,48.3
2016-07-09T09:53:24.402Z,48.88
2016-07-09T09:54:24.425Z,48.88
2016-07-09T09:55:24.443Z,47.43
2016-07-09T09:56:24.471Z,47.05
2016-07-09T09:57:24.490Z,47.45
2016-07-09T09:58:24.508Z,47.55
2016-07-09T09:59:24.535Z,47.55
2016-07-09T10:00:24.576Z,46.12
2016-07-09T10:01:24.578Z,45.25
2016-07-09T10:02:24.603Z,46.15
2016-07-09T10:03:24.634Z,46.61
2016-07-09T10:04:24.652Z,46.03
2016-07-09T10:05:24.674Z,46.12
2016-07-09T10:06:24.697Z,46.3
2016-07-09T10:07:24.716Z,47.14
2016-07-09T10:08:24.752Z,46.95
2016-07-09T10:09:24.765Z,46.49
2016-07-09T10:10:24.793Z,46
2016-07-09T10:11:24.813Z,45.45
2016-07-09T10:12:24.838Z,45.25
2016-07-09T10:13:24.861Z,44.89
2016-07-09T10:14:24.887Z,45.28
2016-07-09T10:15:24.898Z,45.59
2016-07-09T10:16:24.928Z,44.5
2016-07-09T10:17:24.952Z,43.63
2016-07-09T10:18:24.974Z,44.89
2016-07-09T10:19:24.997Z,44.79
2016-07-09T10:20:25.015Z,45.08
2016-07-09T10:21:25.050Z,44.6
2016-07-09T10:22:25.067Z,44.7
2016-07-09T10:23:25.089Z,44.5
2016-07-09T10:24:25.111Z,44.6
2016-07-09T10:25:25.156Z,45.28
2016-07-09T10:26:25.166Z,45.08
2016-07-09T10:27:25.181Z,45.64
2016-07-09T10:28:25.202Z,46.22
2016-07-09T10:29:25.227Z,46.9
2016-07-09T10:30:25.261Z,46.88
2016-07-09T10:31:25.276Z,47.45
2016-07-09T10:32:25.302Z,47.45
2016-07-09T10:33:25.329Z,47.16
2016-07-09T10:34:25.345Z,47.55
2016-07-09T10:35:25.372Z,46.78
2016-07-09T10:36:25.397Z,45.72
2016-07-09T10:37:25.431Z,45.06
2016-07-09T10:38:25.443Z,45.35
2016-07-09T10:39:25.463Z,45.47
2016-07-09T10:40:25.502Z,45.74
2016-07-09T10:41:25.516Z,46.58
2016-07-09T10:42:25.529Z,47.05
2016-07-09T10:43:25.554Z,48.01
2016-07-09T10:44:25.579Z,47.91
2016-07-09T10:45:25.600Z,48.3
2016-07-09T10:46:25.625Z,47.81
2016-07-09T10:47:25.645Z,47.07
2016-07-09T10:48:25.670Z,45.74
2016-07-09T10:49:25.693Z,45.37
2016-07-09T10:50:25.714Z,45.28
2016-07-09T10:51:25.743Z,44.6
2016-07-09T10:52:25.766Z,44.21
2016-07-09T10:53:26.051Z,44.79
2016-07-09T10:54:25.804Z,45.06
2016-07-09T10:55:25.835Z,45.45
2016-07-09T10:56:25.859Z,45.45
2016-07-09T10:57:25.880Z,45.45
2016-07-09T10:58:25.901Z,45.91
2016-07-09T10:59:25.920Z,45.42
2016-07-09T11:00:25.951Z,46.2
2016-07-09T11:01:25.982Z,45.54
2016-07-09T11:02:26.007Z,45.35
2016-07-09T11:03:26.010Z,45.06
2016-07-09T11:04:26.036Z,44.79
2016-07-09T11:05:26.060Z,45.57
2016-07-09T11:06:26.090Z,45.64
2016-07-09T11:07:26.112Z,45.45
2016-07-09T11:08:26.136Z,46.49
2016-07-09T11:09:26.155Z,46.78
2016-07-09T11:10:26.180Z,47.26
2016-07-09T11:11:26.199Z,47.07
2016-07-09T11:12:26.218Z,47.43
2016-07-09T11:13:26.248Z,46.97
2016-07-09T11:14:26.276Z,47.24
2016-07-09T11:15:26.293Z,46.85
2016-07-09T11:16:26.314Z,46.78
2016-07-09T11:17:26.340Z,46.39
2016-07-09T11:18:26.366Z,45.54
2016-07-09T11:19:26.382Z,45.06
2016-07-09T11:20:26.413Z,44.38
2016-07-09T11:21:26.433Z,44.67
2016-07-09T11:22:26.457Z,45.06
2016-07-09T11:23:26.484Z,45.93
2016-07-09T11:24:26.506Z,45.45
2016-07-09T11:25:26.527Z,45.18
2016-07-09T11:26:26.547Z,44.89
2016-07-09T11:27:26.576Z,44.02
2016-07-09T11:28:26.590Z,43.05
2016-07-09T11:29:26.620Z,43.8
2016-07-09T11:30:26.642Z,43.8
2016-07-09T11:31:26.663Z,43.99
2016-07-09T11:32:26.693Z,44.29
2016-07-09T11:33:26.703Z,43.54
2016-07-09T11:34:26.733Z,43.63
2016-07-09T11:35:26.748Z,43.82
2016-07-09T11:36:26.772Z,43.07
2016-07-09T11:37:26.798Z,42.71
2016-07-09T11:38:26.824Z,41.64
2016-07-09T11:39:26.852Z,41.55
2016-07-09T11:40:26.868Z,40.89
2016-07-09T11:41:26.893Z,41.08
2016-07-09T11:42:26.914Z,40.79
2016-07-09T11:43:26.947Z,41.83
2016-07-09T11:44:26.964Z,42.22
2016-07-09T11:45:26.988Z,40.5
2016-07-09T11:46:27.012Z,40.61
2016-07-09T11:47:27.040Z,40.33
2016-07-09T11:48:27.059Z,39.84
2016-07-09T11:49:27.086Z,39.18
2016-07-09T11:50:27.113Z,40.25
2016-07-09T11:51:27.129Z,39.67
2016-07-09T11:52:27.152Z,40.33
2016-07-09T11:53:27.182Z,40.23
2016-07-09T11:54:27.209Z,40.52
2016-07-09T11:55:27.233Z,39.84
2016-07-09T11:56:27.256Z,40.31
2016-07-09T11:57:27.278Z,40.5
2016-07-09T11:58:27.302Z,41.47
2016-07-09T11:59:27.338Z,41.86
2016-07-09T12:00:27.348Z,41.47
2016-07-09T12:01:27.373Z,41.08
2016-07-09T12:02:27.401Z,41.16
2016-07-09T12:03:27.429Z,41.83
2016-07-09T12:04:27.443Z,41.35
2016-07-09T12:05:27.467Z,43.07
2016-07-09T12:06:27.487Z,43.73
2016-07-09T12:07:27.511Z,43.54
2016-07-09T12:08:27.546Z,42.57
2016-07-09T12:09:27.558Z,43.34
2016-07-09T12:10:27.590Z,43.07
2016-07-09T12:11:27.616Z,42.3
2016-07-09T12:12:27.639Z,42.59
2016-07-09T12:13:27.657Z,41.83
2016-07-09T12:14:27.679Z,41.45
2016-07-09T12:15:27.708Z,41.17
2016-07-09T12:16:27.733Z,40.89
2016-07-09T12:17:27.748Z,41
2016-07-09T12:18:27.775Z,40.52
2016-07-09T12:19:27.799Z,40.23
2016-07-09T12:20:27.829Z,41.08
2016-07-09T12:21:27.849Z,40.99
2016-07-09T12:22:27.874Z,41.08
2016-07-09T12:23:27.899Z,41.08
2016-07-09T12:24:27.927Z,41.08
2016-07-09T12:25:27.941Z,41.66
2016-07-09T12:26:27.967Z,41.83
2016-07-09T12:27:27.995Z,41.93
2016-07-09T12:28:28.017Z,42.32
2016-07-09T12:29:28.036Z,41.76
2016-07-09T12:30:28.057Z,41.27
2016-07-09T12:31:28.090Z,40.89
2016-07-09T12:32:28.111Z,41.86
2016-07-09T12:33:28.131Z,42.24
2016-07-09T12:34:28.161Z,42.54
2016-07-09T12:35:28.192Z,41.66
2016-07-09T12:36:28.210Z,41.76
2016-07-09T12:37:28.231Z,41.78
2016-07-09T12:38:28.258Z,41.2
2016-07-09T12:39:28.275Z,41.58
2016-07-09T12:40:28.301Z,42.14
2016-07-09T12:41:28.326Z,41.76
2016-07-09T12:42:28.355Z,41.17
2016-07-09T12:43:28.376Z,42.24
2016-07-09T12:44:28.400Z,42.54
2016-07-09T12:45:28.425Z,42.34
2016-07-09T12:46:28.447Z,43.19
2016-07-09T12:47:28.474Z,43.77
2016-07-09T12:48:28.493Z,43.58
2016-07-09T12:49:28.521Z,43.68
2016-07-09T12:50:28.535Z,42.22
2016-07-09T12:51:28.565Z,41.95
2016-07-09T12:52:28.589Z,42.41
2016-07-09T12:53:28.619Z,42.14
2016-07-09T12:54:28.637Z,42.32